Time;durP1;ratioP1;P1;durP2;ratioP2;P2;SDS_P1;SDS_P2;PMS_P1;PMS_P2;Temp;Humidity;BMP_temperature;BMP_pressure;BME280_temperature;BME280_humidity;BME280_pressure;Samples;Min_cycle;Max_cycle;Signal;HPM_P1;HPM_P2
2022/04/17 00:00:25;;;;;;;3.73;2.90;;;8.20;97.60;;;;;;5052287;28;20338;-34
2022/04/17 00:02:52;;;;;;;4.10;2.80;;;8.20;97.70;;;;;;5052559;28;20174;-34
2022/04/17 00:05:18;;;;;;;3.10;2.80;;;8.20;97.90;;;;;;5035547;28;20677;-35
2022/04/17 00:07:44;;;;;;;3.57;2.70;;;8.20;98.10;;;;;;5053401;28;20328;-34
2022/04/17 00:10:11;;;;;;;5.47;2.90;;;8.20;98.10;;;;;;5035375;28;20181;-34
2022/04/17 00:12:39;;;;;;;3.23;2.70;;;8.20;98.20;;;;;;5035515;28;20200;-34
2022/04/17 00:15:07;;;;;;;4.50;2.50;;;8.10;98.30;;;;;;5035608;28;20205;-35
2022/04/17 00:17:33;;;;;;;4.20;2.60;;;8.10;98.60;;;;;;5035621;28;20226;-35
2022/04/17 00:19:59;;;;;;;3.90;2.63;;;8.00;98.60;;;;;;5035548;28;20185;-35
2022/04/17 00:22:26;;;;;;;2.77;2.50;;;8.00;98.70;;;;;;5035014;28;20196;-35
2022/04/17 00:24:52;;;;;;;4.90;2.97;;;7.90;98.80;;;;;;5053023;28;20189;-34
2022/04/17 00:27:19;;;;;;;4.30;3.00;;;7.90;98.80;;;;;;5035728;28;20205;-36
2022/04/17 00:29:44;;;;;;;2.93;2.40;;;7.90;99.00;;;;;;5035345;28;20228;-35
2022/04/17 00:32:11;;;;;;;3.17;2.80;;;7.90;99.00;;;;;;5052203;28;20208;-34
2022/04/17 00:34:37;;;;;;;3.40;3.00;;;7.90;99.00;;;;;;5051564;28;20212;-35
2022/04/17 00:37:05;;;;;;;4.57;2.60;;;7.80;99.20;;;;;;5052543;28;20250;-35
2022/04/17 00:39:31;;;;;;;2.93;2.63;;;7.70;99.30;;;;;;5052704;28;20173;-34
2022/04/17 00:41:59;;;;;;;2.83;2.53;;;7.70;99.40;;;;;;5035288;28;20185;-34
2022/04/17 00:44:26;;;;;;;3.90;3.13;;;7.70;99.40;;;;;;5033904;28;20188;-34
2022/04/17 00:46:52;;;;;;;4.43;2.90;;;7.60;99.50;;;;;;5051897;28;20212;-36
2022/04/17 00:49:18;;;;;;;3.90;2.97;;;7.60;99.40;;;;;;5050800;28;20171;-35
2022/04/17 00:51:47;;;;;;;3.00;2.70;;;7.60;99.70;;;;;;5051450;28;20184;-35
2022/04/17 00:54:14;;;;;;;3.50;2.80;;;7.60;99.80;;;;;;5034597;28;20208;-34
2022/04/17 00:56:41;;;;;;;3.30;2.80;;;7.50;99.90;;;;;;5035294;28;20203;-37
2022/04/17 00:59:11;;;;;;;3.17;2.87;;;7.50;99.90;;;;;;5034799;28;20653;-38
2022/04/17 01:01:38;;;;;;;3.40;2.63;;;7.50;99.90;;;;;;5035110;28;20192;-38
2022/04/17 01:04:05;;;;;;;3.40;3.00;;;7.50;99.90;;;;;;5051012;28;20180;-39
2022/04/17 01:06:32;;;;;;;3.33;3.03;;;7.40;99.90;;;;;;5034531;28;20204;-38
2022/04/17 01:08:59;;;;;;;4.63;2.97;;;7.40;99.90;;;;;;5051284;28;20270;-41
2022/04/17 01:11:25;;;;;;;3.23;2.93;;;7.40;99.90;;;;;;5051395;28;20183;-37
2022/04/17 01:13:55;;;;;;;3.63;3.10;;;7.30;99.90;;;;;;5034636;28;20192;-37
2022/04/17 01:16:23;;;;;;;3.00;2.67;;;7.30;99.90;;;;;;5034244;28;20204;-38
2022/04/17 01:18:52;;;;;;;4.70;3.20;;;7.30;99.90;;;;;;5034146;28;20181;-35
2022/04/17 01:21:18;;;;;;;3.27;2.97;;;7.30;99.90;;;;;;5034618;28;20188;-37
2022/04/17 01:29:14;;;;;;;3.97;2.80;;;7.10;99.90;;;;;;5050558;28;20192;-37
2022/04/17 01:31:39;;;;;;;3.93;3.30;;;7.10;99.90;;;;;;5050883;28;20181;-39
2022/04/17 01:34:05;;;;;;;3.27;2.97;;;7.00;99.90;;;;;;5050325;28;20202;-34
2022/04/17 01:36:31;;;;;;;4.20;3.03;;;7.00;99.90;;;;;;5050621;28;20228;-34
2022/04/17 01:38:57;;;;;;;3.67;2.93;;;6.90;99.90;;;;;;5034288;28;20181;-35
2022/04/17 01:41:23;;;;;;;3.53;3.23;;;6.90;99.90;;;;;;5034395;28;20201;-35
2022/04/17 01:43:49;;;;;;;4.33;3.10;;;6.90;99.90;;;;;;5018414;28;20187;-35
2022/04/17 01:46:14;;;;;;;4.30;2.77;;;6.80;99.90;;;;;;5042010;28;20201;-34
2022/04/17 01:48:41;;;;;;;6.00;2.90;;;6.80;99.90;;;;;;5034029;28;20171;-34
2022/04/17 01:51:07;;;;;;;3.77;3.00;;;6.70;99.90;;;;;;5050644;28;20180;-34
2022/04/17 01:53:33;;;;;;;4.00;3.00;;;6.60;99.90;;;;;;5050641;28;20260;-36
2022/04/17 01:56:02;;;;;;;3.60;3.03;;;6.60;99.90;;;;;;5049455;28;20221;-35
2022/04/17 01:58:28;;;;;;;5.13;2.97;;;6.50;99.90;;;;;;5033568;28;20178;-34
2022/04/17 02:00:54;;;;;;;5.13;3.20;;;6.40;99.90;;;;;;5030113;28;20185;-34
2022/04/17 02:03:20;;;;;;;4.10;3.03;;;6.30;99.90;;;;;;5030260;28;20205;-34
2022/04/17 02:05:45;;;;;;;3.80;3.00;;;6.10;99.90;;;;;;5013779;28;20179;-34
2022/04/17 02:08:13;;;;;;;5.33;2.80;;;5.90;99.90;;;;;;5018463;28;20172;-34
2022/04/17 02:10:39;;;;;;;3.77;3.33;;;5.80;99.90;;;;;;5046918;28;20189;-34
2022/04/17 02:13:05;;;;;;;4.50;3.30;;;5.80;99.90;;;;;;5049889;28;20188;-34
2022/04/17 02:15:31;;;;;;;3.30;3.00;;;5.60;99.90;;;;;;5049339;28;20237;-35
2022/04/17 02:17:57;;;;;;;3.03;2.73;;;5.70;99.90;;;;;;5029734;28;20233;-34
2022/04/17 02:20:22;;;;;;;4.23;3.40;;;5.80;99.90;;;;;;5046790;28;20203;-34
2022/04/17 02:22:48;;;;;;;4.33;3.23;;;5.80;99.90;;;;;;5030268;28;20181;-34
2022/04/17 02:25:14;;;;;;;4.10;3.30;;;5.70;99.90;;;;;;5013509;28;20188;-35
2022/04/17 02:27:40;;;;;;;3.87;3.47;;;5.60;99.90;;;;;;5013284;28;20225;-34
2022/04/17 02:30:08;;;;;;;5.23;4.37;;;5.30;99.90;;;;;;5031708;28;20198;-34
2022/04/17 02:32:34;;;;;;;5.50;3.80;;;5.20;99.90;;;;;;5049786;28;20181;-34
2022/04/17 02:35:00;;;;;;;4.20;3.40;;;4.90;99.90;;;;;;5033296;28;20279;-34
2022/04/17 02:37:26;;;;;;;4.00;3.30;;;4.80;99.90;;;;;;5033601;28;20233;-36
2022/04/17 02:39:52;;;;;;;4.20;3.40;;;4.70;99.90;;;;;;5032976;28;20661;-34
2022/04/17 02:42:18;;;;;;;5.20;3.40;;;4.60;99.90;;;;;;5030198;28;20182;-34
2022/04/17 02:44:44;;;;;;;5.67;3.50;;;4.50;99.90;;;;;;5030032;28;20174;-34
2022/04/17 02:49:54;;;;;;;4.43;3.83;;;4.40;99.90;;;;;;5040498;28;20184;-34
2022/04/17 02:52:20;;;;;;;3.77;3.10;;;4.50;99.90;;;;;;5049900;28;20231;-34
2022/04/17 02:54:46;;;;;;;5.33;3.40;;;4.40;99.90;;;;;;5050878;28;20193;-36
2022/04/17 02:57:12;;;;;;;5.60;3.57;;;4.40;99.90;;;;;;5033373;28;20209;-34
2022/04/17 02:59:38;;;;;;;3.83;3.53;;;4.60;99.90;;;;;;5033008;28;20197;-34
2022/04/17 03:07:34;;;;;;;5.37;3.60;;;4.70;99.90;;;;;;5051543;28;20205;-34
2022/04/17 03:10:02;;;;;;;3.87;3.07;;;4.80;99.90;;;;;;5053946;28;20186;-35
2022/04/17 03:12:28;;;;;;;4.60;3.53;;;4.80;99.90;;;;;;5037286;28;20209;-34
2022/04/17 03:14:53;;;;;;;3.80;3.40;;;4.80;99.90;;;;;;5037409;28;20209;-35
2022/04/17 03:17:19;;;;;;;4.77;3.70;;;4.80;99.90;;;;;;5036918;28;20198;-40
2022/04/17 03:19:46;;;;;;;5.80;3.80;;;4.80;99.90;;;;;;5036649;28;20253;-37
2022/04/17 03:22:12;;;;;;;5.37;3.37;;;4.70;99.90;;;;;;5053155;28;20174;-40
2022/04/17 03:24:38;;;;;;;7.17;5.30;;;4.70;99.90;;;;;;5053610;28;20186;-36
2022/04/17 03:27:04;;;;;;;5.53;3.70;;;4.60;99.90;;;;;;5036584;28;20209;-36
2022/04/17 03:29:30;;;;;;;6.53;4.00;;;4.60;99.90;;;;;;5052937;28;20190;-36
2022/04/17 03:31:56;;;;;;;5.13;3.80;;;4.50;99.90;;;;;;5036840;28;20273;-37
2022/04/17 03:34:22;;;;;;;5.60;3.83;;;4.50;99.90;;;;;;5053206;28;20280;-40
2022/04/17 03:36:48;;;;;;;6.50;3.87;;;4.60;99.90;;;;;;5052674;28;20293;-37
2022/04/17 03:39:14;;;;;;;3.63;3.30;;;4.60;99.90;;;;;;5036412;28;20178;-37
2022/04/17 03:41:40;;;;;;;5.97;4.10;;;4.50;99.90;;;;;;5053090;28;20198;-37
2022/04/17 03:44:06;;;;;;;4.07;3.67;;;4.50;99.90;;;;;;5018775;28;20189;-36
2022/04/17 03:46:33;;;;;;;6.37;3.80;;;4.30;99.90;;;;;;5032981;28;20211;-36
2022/04/17 03:48:59;;;;;;;6.23;4.47;;;4.20;99.90;;;;;;5032467;28;20193;-38
2022/04/17 03:51:24;;;;;;;6.27;4.70;;;4.20;99.90;;;;;;5033223;28;20190;-37
2022/04/17 03:53:50;;;;;;;7.47;3.77;;;4.10;99.90;;;;;;5041952;28;20177;-36
2022/04/17 03:56:16;;;;;;;7.57;4.53;;;4.10;99.90;;;;;;5053056;28;20280;-36
2022/04/17 03:58:42;;;;;;;5.97;4.23;;;4.00;99.90;;;;;;5036177;28;20193;-37
2022/04/17 04:01:08;;;;;;;5.93;4.07;;;3.90;99.90;;;;;;5035937;28;20266;-37
2022/04/17 04:03:34;;;;;;;5.77;4.40;;;3.90;99.90;;;;;;5035746;28;20182;-36
2022/04/17 04:06:00;;;;;;;7.37;4.57;;;3.70;99.90;;;;;;5053265;28;20198;-36
2022/04/17 04:08:26;;;;;;;6.13;4.37;;;3.60;99.90;;;;;;5036235;28;20198;-36
2022/04/17 04:10:52;;;;;;;5.87;4.03;;;3.50;99.90;;;;;;5052253;28;20280;-36
2022/04/17 04:13:19;;;;;;;6.27;4.50;;;3.50;99.90;;;;;;5054116;28;20190;-38
2022/04/17 04:15:44;;;;;;;7.30;5.60;;;3.50;99.90;;;;;;5052074;28;20209;-39
2022/04/17 04:18:10;;;;;;;8.33;4.87;;;3.40;99.90;;;;;;5034694;28;20200;-35
2022/04/17 04:20:36;;;;;;;5.20;4.20;;;3.30;99.90;;;;;;5035665;28;20246;-37
2022/04/17 04:23:02;;;;;;;4.87;4.27;;;3.30;99.90;;;;;;5036063;28;20186;-36
2022/04/17 04:25:28;;;;;;;5.10;4.00;;;3.40;99.90;;;;;;5035312;28;20186;-37
2022/04/17 04:30:38;;;;;;;5.83;3.40;;;3.50;99.90;;;;;;5051780;28;20730;-37
2022/04/17 04:33:04;;;;;;;5.37;4.17;;;3.60;99.90;;;;;;5035458;28;20208;-36
2022/04/17 04:35:29;;;;;;;4.20;3.80;;;3.80;99.90;;;;;;5051927;28;20212;-35
2022/04/17 04:37:56;;;;;;;3.80;3.00;;;3.80;99.90;;;;;;5052048;28;20193;-37
2022/04/17 04:40:22;;;;;;;4.10;3.70;;;3.90;99.90;;;;;;5052042;28;20182;-36
2022/04/17 04:42:55;;;;;;;6.80;3.93;;;3.90;99.90;;;;;;5031422;28;20213;-37
2022/04/17 04:48:06;;;;;;;4.20;3.67;;;4.00;99.90;;;;;;5031912;28;20179;-36
2022/04/17 04:50:31;;;;;;;4.77;4.03;;;4.00;99.90;;;;;;5015266;28;20183;-35
2022/04/17 04:52:57;;;;;;;5.10;4.00;;;3.90;99.90;;;;;;5033145;28;20178;-36
2022/04/17 04:55:23;;;;;;;11.67;6.20;;;3.80;99.90;;;;;;5015080;28;20264;-35
2022/04/17 04:57:49;;;;;;;8.37;4.63;;;3.70;99.90;;;;;;5031434;28;20238;-37
2022/04/17 05:00:15;;;;;;;6.50;4.70;;;3.70;99.90;;;;;;5050635;28;20247;-39
2022/04/17 05:02:59;;;;;;;5.77;4.80;;;3.60;99.90;;;;;;5035785;28;20591;-36
2022/04/17 05:05:44;;;;;;;5.87;4.37;;;3.60;99.90;;;;;;5053545;28;20237;-36
2022/04/17 05:08:09;;;;;;;4.43;3.80;;;3.60;99.90;;;;;;5034704;28;20192;-36
2022/04/17 05:10:35;;;;;;;6.20;4.03;;;3.70;99.90;;;;;;5035039;28;20186;-36
2022/04/17 05:13:01;;;;;;;5.03;4.00;;;3.70;99.90;;;;;;5025593;28;20281;-36
2022/04/17 05:15:27;;;;;;;5.00;3.97;;;3.70;99.90;;;;;;5019952;28;20217;-36
2022/04/17 05:17:53;;;;;;;5.27;3.87;;;3.70;99.90;;;;;;5051358;28;20198;-37
2022/04/17 05:20:20;;;;;;;4.50;4.10;;;3.80;99.90;;;;;;5034444;28;20213;-36
2022/04/17 05:22:50;;;;;;;4.97;3.83;;;3.80;99.90;;;;;;5052135;28;20175;-37
2022/04/17 05:25:16;;;;;;;4.13;3.73;;;3.80;99.90;;;;;;5034203;28;20178;-36
2022/04/17 05:27:42;;;;;;;9.03;4.33;;;4.00;99.90;;;;;;5050700;28;20197;-36
2022/04/17 05:30:08;;;;;;;5.00;3.80;;;4.10;99.90;;;;;;5033445;28;20185;-36
2022/04/17 05:32:34;;;;;;;4.83;3.90;;;4.20;99.90;;;;;;5034124;28;20181;-37
2022/04/17 05:35:00;;;;;;;4.27;3.80;;;4.30;99.90;;;;;;5033917;28;20233;-36
2022/04/17 05:37:27;;;;;;;4.63;3.60;;;4.40;99.90;;;;;;5050833;28;20236;-36
2022/04/17 05:39:53;;;;;;;6.90;5.07;;;4.60;99.90;;;;;;5050462;28;20188;-37
2022/04/17 05:42:19;;;;;;;6.37;5.20;;;4.70;99.90;;;;;;5050718;28;20189;-38
2022/04/17 05:44:50;;;;;;;6.17;4.83;;;4.80;99.90;;;;;;5034076;28;20185;-37
2022/04/17 05:47:16;;;;;;;4.67;3.80;;;4.90;99.90;;;;;;5050484;28;20551;-39
2022/04/17 05:49:42;;;;;;;4.93;4.13;;;5.00;99.90;;;;;;5033010;28;20182;-37
2022/04/17 05:52:09;;;;;;;4.63;3.60;;;5.10;99.90;;;;;;5049596;28;20190;-39
2022/04/17 05:54:35;;;;;;;8.20;4.40;;;5.20;99.90;;;;;;5033833;28;20208;-37
2022/04/17 05:57:01;;;;;;;6.53;4.10;;;5.20;99.90;;;;;;5034067;28;20210;-37
2022/04/17 05:59:27;;;;;;;4.67;4.10;;;5.30;99.90;;;;;;5033638;28;20189;-38
2022/04/17 06:01:53;;;;;;;5.97;4.17;;;5.40;99.90;;;;;;5050079;28;20189;-37
2022/04/17 06:04:19;;;;;;;6.43;3.67;;;5.50;99.90;;;;;;5049890;28;20181;-40
2022/04/17 06:06:45;;;;;;;5.07;4.23;;;5.60;99.90;;;;;;5033298;28;20652;-36
2022/04/17 06:09:11;;;;;;;4.73;4.23;;;5.70;99.90;;;;;;5033508;28;20240;-40
2022/04/17 06:11:36;;;;;;;5.83;4.43;;;5.80;99.90;;;;;;5033849;28;20190;-38
2022/04/17 06:14:02;;;;;;;5.20;3.93;;;5.90;99.90;;;;;;5033476;28;20193;-37
2022/04/17 06:16:28;;;;;;;5.10;4.47;;;6.00;99.90;;;;;;5033493;28;20202;-37
2022/04/17 06:18:54;;;;;;;5.20;3.57;;;6.10;99.90;;;;;;5032985;28;20319;-39
2022/04/17 06:21:20;;;;;;;4.47;3.70;;;6.00;99.90;;;;;;5049814;28;20186;-37
2022/04/17 06:23:46;;;;;;;4.60;3.40;;;6.20;99.90;;;;;;5033389;28;20187;-37
2022/04/17 06:26:11;;;;;;;5.20;3.40;;;6.40;99.90;;;;;;5049933;28;20248;-38
2022/04/17 06:28:38;;;;;;;4.23;3.40;;;6.60;99.90;;;;;;5033361;28;20196;-36
2022/04/17 06:31:04;;;;;;;5.40;3.73;;;6.80;99.90;;;;;;5049584;28;20188;-38
2022/04/17 06:33:30;;;;;;;3.77;3.33;;;7.00;99.90;;;;;;5032853;28;20178;-38
2022/04/17 06:35:56;;;;;;;3.30;3.00;;;7.20;99.90;;;;;;5049778;28;20312;-39
2022/04/17 06:38:23;;;;;;;4.23;3.73;;;7.40;99.90;;;;;;5033009;28;20184;-37
2022/04/17 06:40:49;;;;;;;5.43;3.90;;;7.60;99.90;;;;;;5032354;28;20190;-38
2022/04/17 06:43:15;;;;;;;5.10;3.43;;;7.70;99.90;;;;;;5049500;28;20195;-41
2022/04/17 06:45:41;;;;;;;3.20;2.90;;;7.70;99.90;;;;;;5049487;28;20219;-37
2022/04/17 06:48:21;;;;;;;3.97;2.90;;;7.90;99.90;;;;;;5032677;28;20310;-36
2022/04/17 06:50:49;;;;;;;4.53;3.40;;;8.00;99.90;;;;;;5032938;28;20179;-37
2022/04/17 06:53:15;;;;;;;3.97;3.10;;;8.10;99.90;;;;;;5049886;28;20177;-37
2022/04/17 06:55:42;;;;;;;3.87;3.20;;;8.30;99.90;;;;;;5032711;28;20212;-37
2022/04/17 06:58:08;;;;;;;3.40;2.93;;;8.50;99.90;;;;;;5033464;28;20184;-35
2022/04/17 07:00:35;;;;;;;5.33;3.30;;;8.60;99.90;;;;;;5032799;28;20180;-35
2022/04/17 07:03:00;;;;;;;3.03;2.73;;;8.80;99.90;;;;;;5033079;28;20188;-34
2022/04/17 07:05:26;;;;;;;3.50;2.83;;;8.80;99.90;;;;;;5032866;28;20186;-35
2022/04/17 07:08:06;;;;;;;3.73;2.90;;;9.00;99.90;;;;;;5049087;28;20326;-35
2022/04/17 07:10:37;;;;;;;5.00;2.90;;;9.00;99.90;;;;;;5029111;28;20182;-35
2022/04/17 07:13:04;;;;;;;3.60;2.87;;;9.20;99.90;;;;;;5047230;28;20182;-35
2022/04/17 07:15:30;;;;;;;3.60;2.53;;;9.20;99.90;;;;;;5049169;28;20214;-35
2022/04/17 07:17:56;;;;;;;3.63;2.70;;;9.40;99.90;;;;;;5049455;28;20201;-35
2022/04/17 07:20:24;;;;;;;2.70;2.50;;;9.50;99.90;;;;;;5049220;28;20180;-37
2022/04/17 07:22:51;;;;;;;3.67;3.10;;;9.60;99.90;;;;;;5049437;28;20268;-36
2022/04/17 07:25:17;;;;;;;4.23;2.93;;;9.60;99.90;;;;;;5049315;28;20177;-35
2022/04/17 07:27:49;;;;;;;4.37;2.80;;;9.70;99.70;;;;;;5048738;28;20831;-35
2022/04/17 07:30:30;;;;;;;3.10;2.43;;;9.80;99.50;;;;;;5032695;28;20336;-35
2022/04/17 07:33:01;;;;;;;4.77;2.83;;;9.90;99.00;;;;;;5049172;28;20266;-36
2022/04/17 07:35:28;;;;;;;3.63;2.70;;;10.00;98.50;;;;;;5032290;28;20216;-35
2022/04/17 07:37:56;;;;;;;3.83;2.50;;;10.00;98.90;;;;;;5049839;28;20194;-36
2022/04/17 07:40:27;;;;;;;3.40;2.70;;;10.20;98.40;;;;;;5048746;28;20182;-36
2022/04/17 07:42:55;;;;;;;3.00;2.70;;;10.30;98.50;;;;;;5041318;28;20183;-35
2022/04/17 07:45:21;;;;;;;3.50;2.47;;;10.30;98.40;;;;;;5029443;28;20213;-35
2022/04/17 07:47:48;;;;;;;4.07;2.57;;;10.40;97.90;;;;;;5028896;28;20203;-35
2022/04/17 07:50:29;;;;;;;3.70;2.40;;;10.60;97.50;;;;;;5028107;28;20182;-35
2022/04/17 07:52:55;;;;;;;2.90;2.50;;;10.70;97.60;;;;;;5022998;28;20181;-35
2022/04/17 07:55:22;;;;;;;2.70;2.33;;;10.80;97.90;;;;;;5054103;28;20201;-35
2022/04/17 07:58:11;;;;;;;4.23;2.50;;;10.90;97.00;;;;;;5035954;28;20238;-35
2022/04/17 08:00:57;;;;;;;3.07;2.27;;;11.00;97.00;;;;;;5037186;28;20171;-35
2022/04/17 08:03:35;;;;;;;4.73;2.60;;;11.10;96.30;;;;;;5035088;28;20218;-35
2022/04/17 08:06:04;;;;;;;4.60;2.50;;;11.20;96.30;;;;;;5051134;28;20216;-37
2022/04/17 08:08:30;;;;;;;4.37;2.43;;;11.30;96.40;;;;;;5051797;28;20209;-35
2022/04/17 08:10:57;;;;;;;3.50;2.40;;;11.50;96.90;;;;;;5051909;28;20233;-37
2022/04/17 08:13:23;;;;;;;3.30;2.33;;;11.70;96.50;;;;;;5051761;28;20204;-39
2022/04/17 08:15:52;;;;;;;3.07;2.50;;;11.80;95.70;;;;;;5051835;28;20198;-37
2022/04/17 08:18:18;;;;;;;4.37;2.67;;;11.90;95.70;;;;;;5035476;28;20655;-37
2022/04/17 08:20:44;;;;;;;3.67;2.80;;;12.00;95.10;;;;;;5051945;28;20209;-35
2022/04/17 08:23:10;;;;;;;2.47;2.27;;;12.00;95.30;;;;;;5052587;28;20182;-35
2022/04/17 08:25:37;;;;;;;3.10;2.47;;;12.10;95.30;;;;;;5035451;28;20174;-35
2022/04/17 08:28:03;;;;;;;2.90;2.60;;;12.20;95.10;;;;;;5051871;28;20235;-38
2022/04/17 08:30:31;;;;;;;4.13;2.50;;;12.30;94.80;;;;;;5035505;28;20178;-35
2022/04/17 08:32:59;;;;;;;3.10;2.40;;;12.10;95.70;;;;;;5035566;28;20237;-37
2022/04/17 08:35:25;;;;;;;2.43;2.23;;;12.20;95.40;;;;;;5034660;28;20679;-35
2022/04/17 08:37:52;;;;;;;3.20;2.53;;;12.50;95.70;;;;;;5034507;28;20198;-37
2022/04/17 08:40:19;;;;;;;4.47;2.80;;;12.60;94.50;;;;;;5051008;28;20206;-35
2022/04/17 08:42:45;;;;;;;2.43;2.23;;;12.80;95.10;;;;;;5050940;28;20184;-37
2022/04/17 08:45:13;;;;;;;2.37;2.17;;;12.90;94.20;;;;;;5054404;28;20177;-38
2022/04/17 08:47:41;;;;;;;2.50;2.30;;;13.10;94.20;;;;;;5053302;28;20306;-37
2022/04/17 08:50:08;;;;;;;2.57;2.10;;;13.30;94.30;;;;;;5053863;28;20183;-35
2022/04/17 08:52:35;;;;;;;2.97;2.20;;;13.40;93.90;;;;;;5053257;28;20198;-37
2022/04/17 08:55:02;;;;;;;4.43;2.80;;;13.50;93.00;;;;;;5037432;28;20299;-37
2022/04/17 08:57:28;;;;;;;2.50;2.23;;;13.50;92.90;;;;;;5051716;28;20289;-35
2022/04/17 08:59:54;;;;;;;3.73;2.00;;;13.60;93.00;;;;;;5034411;28;20319;-40
2022/04/17 09:02:20;;;;;;;3.77;2.23;;;13.70;92.80;;;;;;5034491;28;20192;-35
2022/04/17 09:04:46;;;;;;;2.67;2.30;;;13.80;92.80;;;;;;5034639;28;20180;-35
2022/04/17 09:07:13;;;;;;;2.23;2.03;;;13.70;92.00;;;;;;5034338;28;20201;-36
2022/04/17 09:09:53;;;;;;;2.70;2.03;;;13.70;94.40;;;;;;5050585;28;20193;-35
2022/04/17 09:12:24;;;;;;;2.77;2.17;;;13.70;92.30;;;;;;5051226;28;20193;-36
2022/04/17 09:14:50;;;;;;;2.83;2.10;;;13.70;92.80;;;;;;5034577;28;20216;-34
2022/04/17 09:17:18;;;;;;;2.63;2.07;;;13.60;91.30;;;;;;5034690;28;20216;-35
2022/04/17 09:19:44;;;;;;;3.33;1.97;;;13.60;91.50;;;;;;5052732;28;20176;-35
2022/04/17 09:22:12;;;;;;;2.90;2.10;;;13.60;90.10;;;;;;5052795;28;20630;-38
2022/04/17 09:24:39;;;;;;;2.37;2.10;;;13.70;90.80;;;;;;5035505;28;20272;-39
2022/04/17 09:27:06;;;;;;;2.03;1.73;;;13.90;91.10;;;;;;5034042;28;20291;-37
2022/04/17 09:29:37;;;;;;;2.20;1.97;;;13.90;90.70;;;;;;5034461;28;20266;-37
2022/04/17 09:32:12;;;;;;;2.77;1.90;;;13.90;90.70;;;;;;5052088;28;20184;-38
2022/04/17 09:34:50;;;;;;;1.90;1.73;;;14.00;89.70;;;;;;5033964;28;20205;-38
2022/04/17 09:37:18;;;;;;;5.47;2.00;;;14.20;90.00;;;;;;5052284;28;20247;-40
2022/04/17 09:39:45;;;;;;;2.30;1.73;;;14.40;90.70;;;;;;5050554;28;20177;-38
2022/04/17 09:42:11;;;;;;;3.70;2.03;;;14.40;90.10;;;;;;5031749;28;20174;-38
2022/04/17 09:44:54;;;;;;;2.00;1.83;;;14.60;90.80;;;;;;5030890;28;20182;-41
2022/04/17 09:47:24;;;;;;;3.27;1.87;;;14.70;90.20;;;;;;5030341;28;20225;-40
2022/04/17 09:50:06;;;;;;;2.63;1.57;;;14.90;90.70;;;;;;5030410;28;20198;-41
2022/04/17 09:52:35;;;;;;;2.60;1.63;;;15.00;88.10;;;;;;5030624;28;20179;-38
2022/04/17 09:55:03;;;;;;;1.80;1.50;;;15.00;86.90;;;;;;5030553;28;20321;-38
2022/04/17 09:57:35;;;;;;;2.20;1.80;;;15.00;90.40;;;;;;5036397;28;20308;-38
2022/04/17 10:00:18;;;;;;;3.07;2.10;;;15.10;88.60;;;;;;5051437;28;20245;-39
2022/04/17 10:02:48;;;;;;;1.97;1.70;;;15.40;89.40;;;;;;5050437;28;20182;-38
2022/04/17 10:05:16;;;;;;;1.93;1.30;;;15.30;86.40;;;;;;5033474;28;20182;-37
2022/04/17 10:07:43;;;;;;;1.90;1.60;;;15.30;84.50;;;;;;5050022;28;20198;-37
2022/04/17 10:10:11;;;;;;;2.00;1.73;;;15.50;85.70;;;;;;5049722;28;20188;-36
2022/04/17 10:12:40;;;;;;;1.60;1.50;;;15.40;83.10;;;;;;5044425;28;20212;-35
2022/04/17 10:15:07;;;;;;;2.10;1.70;;;15.50;81.90;;;;;;5031194;28;20210;-35
2022/04/17 10:17:44;;;;;;;1.73;1.53;;;15.80;82.50;;;;;;5029637;28;20194;-37
2022/04/17 10:20:12;;;;;;;1.60;1.50;;;15.80;83.30;;;;;;5029578;28;20186;-35
2022/04/17 10:22:40;;;;;;;1.73;1.40;;;15.70;82.30;;;;;;5029715;28;20207;-38
2022/04/17 10:25:08;;;;;;;2.00;1.50;;;15.80;83.00;;;;;;5030100;28;20182;-39
2022/04/17 10:27:37;;;;;;;2.93;1.70;;;16.00;82.50;;;;;;5029985;28;20249;-37
2022/04/17 10:30:07;;;;;;;1.83;1.60;;;16.00;81.70;;;;;;5031145;28;20194;-38
2022/04/17 10:32:35;;;;;;;2.07;1.60;;;16.10;82.20;;;;;;5032888;28;20178;-35
2022/04/17 10:35:29;;;;;;;1.63;1.50;;;15.90;80.80;;;;;;5032804;28;20253;-36
2022/04/17 10:38:18;;;;;;;2.13;1.50;;;16.00;81.40;;;;;;5033292;28;20718;-35
2022/04/17 10:41:02;;;;;;;1.60;1.50;;;16.20;81.20;;;;;;5049584;28;20650;-39
2022/04/17 10:43:33;;;;;;;1.57;1.47;;;16.30;81.90;;;;;;5032694;28;20189;-35
2022/04/17 10:46:17;;;;;;;2.57;1.60;;;16.40;81.40;;;;;;5050969;28;20201;-36
2022/04/17 10:48:46;;;;;;;2.03;1.60;;;16.50;79.40;;;;;;5032738;28;20177;-36
2022/04/17 10:51:16;;;;;;;2.07;1.50;;;16.50;79.50;;;;;;5049439;28;20190;-35
2022/04/17 10:54:03;;;;;;;2.27;1.67;;;16.60;81.20;;;;;;5033074;28;20244;-36
2022/04/17 10:56:33;;;;;;;4.00;1.73;;;16.80;84.10;;;;;;5032806;28;20296;-35
2022/04/17 10:59:00;;;;;;;3.30;1.60;;;16.90;81.90;;;;;;5029471;28;20221;-38
2022/04/17 11:01:44;;;;;;;1.63;1.53;;;17.10;79.60;;;;;;5013316;28;20178;-35
2022/04/17 11:04:19;;;;;;;1.87;1.63;;;17.20;78.50;;;;;;5017145;28;20174;-36
2022/04/17 11:06:45;;;;;;;2.20;1.47;;;17.10;79.70;;;;;;5029674;28;20221;-38
2022/04/17 11:09:20;;;;;;;2.30;1.50;;;17.00;78.00;;;;;;5045815;28;20175;-37
2022/04/17 11:11:46;;;;;;;2.67;1.65;;;17.10;79.20;;;;;;5029541;28;20259;-35
2022/04/17 11:14:20;;;;;;;1.45;1.35;;;16.90;80.00;;;;;;5049807;28;20217;-38
2022/04/17 11:16:56;;;;;;;2.40;1.70;;;17.10;83.00;;;;;;5049057;28;20256;-39
2022/04/17 11:19:28;;;;;;;2.35;1.60;;;17.10;78.00;;;;;;5049112;28;20174;-37
2022/04/17 11:21:59;;;;;;;2.27;1.70;;;17.30;81.40;;;;;;5029404;28;20265;-36
2022/04/17 11:24:27;;;;;;;1.93;1.63;;;17.30;77.40;;;;;;5029366;28;20182;-38
2022/04/17 11:26:53;;;;;;;1.90;1.70;;;17.30;78.00;;;;;;5012731;28;20203;-38
2022/04/17 11:29:45;;;;;;;1.60;1.50;;;17.50;78.80;;;;;;5045780;28;20182;-38
2022/04/17 11:32:17;;;;;;;1.50;1.40;;;17.70;80.90;;;;;;5053187;28;20227;-36
2022/04/17 11:34:47;;;;;;;3.85;1.65;;;17.50;79.80;;;;;;5036303;28;20273;-38
2022/04/17 11:37:16;;;;;;;3.17;1.52;;;17.60;80.30;;;;;;5052811;28;20257;-37
2022/04/17 11:39:42;;;;;;;1.85;1.50;;;17.80;79.10;;;;;;5035687;28;20178;-36
2022/04/17 11:42:09;;;;;;;2.95;1.67;;;17.80;77.80;;;;;;5036410;28;20188;-36
2022/04/17 11:44:39;;;;;;;2.35;1.58;;;17.70;79.90;;;;;;5036271;28;20182;-36
2022/04/17 11:47:06;;;;;;;2.05;1.40;;;17.90;81.70;;;;;;5053101;28;20198;-38
2022/04/17 11:49:38;;;;;;;2.28;1.58;;;18.10;77.60;;;;;;5036008;28;20182;-38
2022/04/17 11:52:18;;;;;;;2.78;1.70;;;18.30;79.30;;;;;;5052557;28;20190;-36
2022/04/17 11:54:45;;;;;;;2.45;1.60;;;18.30;77.80;;;;;;5035833;28;20201;-38
2022/04/17 11:57:12;;;;;;;3.78;1.60;;;18.20;78.10;;;;;;5052468;28;20229;-37
2022/04/17 11:59:44;;;;;;;3.85;2.00;;;18.00;77.20;;;;;;5035740;28;20181;-37
2022/04/17 12:02:24;;;;;;;3.30;1.80;;;17.90;76.20;;;;;;5035976;28;20178;-38
2022/04/17 12:04:53;;;;;;;2.67;1.83;;;17.80;77.70;;;;;;5052739;28;20535;-38
2022/04/17 12:07:21;;;;;;;1.65;1.55;;;17.70;76.50;;;;;;5052566;28;20296;-37
2022/04/17 12:09:48;;;;;;;2.30;1.70;;;17.80;80.70;;;;;;5052509;28;20181;-36
2022/04/17 12:12:19;;;;;;;1.52;1.42;;;18.10;77.10;;;;;;5052327;28;20178;-38
2022/04/17 12:14:53;;;;;;;2.33;1.67;;;18.20;76.00;;;;;;5035659;28;20292;-36
2022/04/17 12:17:21;;;;;;;1.98;1.60;;;18.40;74.50;;;;;;5052223;28;20217;-37
2022/04/17 12:19:50;;;;;;;1.90;1.58;;;18.70;74.50;;;;;;5035309;28;20185;-36
2022/04/17 12:22:18;;;;;;;1.80;1.70;;;18.40;74.80;;;;;;5035493;28;20208;-36
2022/04/17 12:24:45;;;;;;;2.80;1.55;;;18.50;74.50;;;;;;5052128;28;20193;-36
2022/04/17 12:27:20;;;;;;;1.83;1.60;;;18.20;74.80;;;;;;5051742;28;20198;-39
2022/04/17 12:29:47;;;;;;;4.22;1.80;;;17.80;75.40;;;;;;5035020;28;20185;-41
2022/04/17 12:32:26;;;;;;;2.30;1.63;;;18.10;74.40;;;;;;5052455;28;20190;-36
2022/04/17 12:35:03;;;;;;;1.90;1.60;;;18.20;74.00;;;;;;5052236;28;20271;-37
2022/04/17 12:37:33;;;;;;;2.17;1.60;;;18.10;72.60;;;;;;5051839;28;20272;-37
2022/04/17 12:40:29;;;;;;;2.25;1.70;;;18.00;72.60;;;;;;5050439;28;20181;-36
2022/04/17 12:43:14;;;;;;;1.77;1.60;;;18.00;77.30;;;;;;5051731;28;20218;-36
2022/04/17 12:45:55;;;;;;;2.88;1.80;;;18.10;75.70;;;;;;5051486;28;20188;-37
2022/04/17 12:48:30;;;;;;;3.30;1.90;;;18.30;74.50;;;;;;5052925;28;20185;-37
2022/04/17 12:50:58;;;;;;;1.83;1.50;;;18.30;77.20;;;;;;5034923;28;20181;-37
2022/04/17 12:53:24;;;;;;;2.38;1.40;;;18.40;76.50;;;;;;5035414;28;20223;-36
2022/04/17 12:55:53;;;;;;;1.58;1.48;;;18.20;74.80;;;;;;5051408;28;20214;-38
2022/04/17 12:58:20;;;;;;;1.60;1.50;;;18.10;76.30;;;;;;5053622;28;20182;-36
2022/04/17 13:00:58;;;;;;;1.98;1.73;;;18.20;74.60;;;;;;5050687;28;20178;-37
2022/04/17 13:03:36;;;;;;;1.60;1.50;;;18.00;77.40;;;;;;5051675;28;20243;-39
2022/04/17 13:06:03;;;;;;;1.52;1.42;;;18.10;74.20;;;;;;5051534;28;20263;-38
2022/04/17 13:08:29;;;;;;;1.40;1.30;;;18.40;75.90;;;;;;5051329;28;20186;-36
2022/04/17 13:10:55;;;;;;;1.63;1.52;;;18.70;75.50;;;;;;5034092;28;20202;-39
2022/04/17 13:13:40;;;;;;;1.58;1.48;;;18.80;74.40;;;;;;5051008;28;20220;-36
2022/04/17 13:16:06;;;;;;;2.47;1.52;;;19.00;74.30;;;;;;5034377;28;20220;-37
2022/04/17 13:18:34;;;;;;;3.83;1.55;;;19.20;74.90;;;;;;5033700;28;20178;-40